Meteorología y climatología de Navarra
Datos de la estación - Meteo Navarra

Estación de Aoiz GN

Altitud 534 m.


Datos desde el 23/05/2020 hasta el 24/05/2020 en horario solar
Los datos son PROVISIONALES

Anterior Página 1 de 1 Siguiente Descargar: Formato para Excel 2000 o superior   Formato csv   Formato para OpenOffice Calc
Fecha Temperatura Humedad relativa Radiación global Insolación Precipitación Vel. viento 10 m Vel. viento 10 m Dir. viento 10 m
ºC % W/m² s l/m² m/s km/h º
23/05/2020 0:00 15.6 92 0.0 0 0.0 1.9 6.8 289
23/05/2020 0:10 15.6 92 0.0 0 0.0 0.7 2.4 349
23/05/2020 0:20 15.3 93 0.0 0 0.0 0.8 2.9 348
23/05/2020 0:30 15.3 93 0.0 0 0.0 0.7 2.5 7
23/05/2020 0:40 15.2 93 0.0 0 0.0 0.5 1.9 20
23/05/2020 0:50 15.0 93 0.0 0 0.0 0.6 2.1 50
23/05/2020 1:00 15.0 94 0.0 0 0.0 0.4 1.4 56
23/05/2020 1:10 15.0 93 0.0 0 0.0 0.3 1.0 55
23/05/2020 1:20 14.7 94 0.0 0 0.0 0.4 1.3 54
23/05/2020 1:30 14.8 94 0.0 0 0.0 0.7 2.6 275
23/05/2020 1:40 14.7 94 0.0 0 0.0 0.7 2.7 293
23/05/2020 1:50 14.7 93 0.0 0 0.0 0.4 1.3 115
23/05/2020 2:00 14.9 93 0.0 0 0.0 2.8 10.0 274
23/05/2020 2:10 15.1 91 0.0 0 0.0 3.0 10.7 277
23/05/2020 2:20 15.1 91 0.0 0 0.0 3.4 12.4 277
23/05/2020 2:30 15.2 90 0.0 0 0.0 3.0 10.8 284
23/05/2020 2:40 15.3 89 0.0 0 0.0 3.6 12.8 276
23/05/2020 2:50 15.1 89 0.0 0 0.0 3.3 11.7 275
23/05/2020 3:00 15.2 89 0.0 0 0.0 2.4 8.5 280
23/05/2020 3:10 15.6 85 0.0 0 0.0 2.6 9.3 280
23/05/2020 3:20 15.3 87 0.0 0 0.0 4.2 15.3 278
23/05/2020 3:30 14.9 89 0.0 0 0.0 3.5 12.7 280
23/05/2020 3:40 14.8 89 0.0 0 0.0 3.9 13.9 284
23/05/2020 3:50 14.8 89 0.0 0 0.0 2.8 10.2 282
23/05/2020 4:00 15.0 87 0.0 0 0.0 2.3 8.2 281
23/05/2020 4:10 15.2 86 0.0 0 0.0 1.5 5.3 310
23/05/2020 4:20 15.5 83 0.0 0 0.0 1.1 4.1 292
23/05/2020 4:30 15.1 85 0.0 0 0.0 0.5 1.8 100
23/05/2020 4:40 14.7 88 0.0 0 0.0 0.9 3.1 292
23/05/2020 4:50 14.4 89 0.0 0 0.0 1.1 3.8 286
23/05/2020 5:00 14.6 89 1.4 0 0.0 1.3 4.8 280
23/05/2020 5:10 14.9 87 20.0 0 0.0 0.9 3.3 136
23/05/2020 5:20 14.8 88 32.0 0 0.0 0.9 3.4 226
23/05/2020 5:30 14.7 89 47.9 0 0.0 0.4 1.3 325
23/05/2020 5:40 14.6 89 81.5 238 0.0 0.8 2.9 70
23/05/2020 5:50 15.0 88 81.2 130 0.0 0.7 2.4 52
23/05/2020 6:00 15.3 86 105.2 154 0.0 0.6 2.3 137
23/05/2020 6:10 15.6 86 120.4 224 0.0 1.2 4.2 161
23/05/2020 6:20 15.8 85 161.2 306 0.0 1.2 4.1 171
23/05/2020 6:30 16.3 83 234.2 582 0.0 1.5 5.5 237
23/05/2020 6:40 16.9 82 275.4 600 0.0 2.2 8.0 246
23/05/2020 6:50 17.3 80 309.5 600 0.0 3.4 12.2 249
23/05/2020 7:00 17.6 79 342.3 552 0.0 3.8 13.5 259
23/05/2020 7:10 17.7 78 271.0 346 0.0 2.6 9.4 273
23/05/2020 7:20 18.5 74 399.8 594 0.0 1.4 5.1 264
23/05/2020 7:30 19.2 68 454.5 600 0.0 1.5 5.4 358
23/05/2020 7:40 19.5 67 502.1 600 0.0 1.9 6.8 332
23/05/2020 7:50 19.5 66 494.7 552 0.0 2.0 7.2 343
23/05/2020 8:00 19.6 67 527.8 600 0.0 2.9 10.3 1
23/05/2020 8:10 20.2 65 624.0 600 0.0 3.1 11.3 354
23/05/2020 8:20 20.1 64 619.1 600 0.0 3.3 12.0 1
23/05/2020 8:30 20.4 64 615.2 600 0.0 2.9 10.5 2
23/05/2020 8:40 19.8 65 468.6 596 0.0 2.8 10.0 336
23/05/2020 8:50 19.4 66 515.1 586 0.0 3.6 13.1 2
23/05/2020 9:00 20.0 64 681.7 600 0.0 3.5 12.6 356
23/05/2020 9:10 20.3 63 660.3 600 0.0 3.3 11.9 345
23/05/2020 9:20 20.4 63 700.8 600 0.0 2.5 9.1 341
23/05/2020 9:30 21.0 61 844.0 600 0.0 3.0 10.9 338
23/05/2020 9:40 21.6 60 832.0 600 0.0 2.5 9.1 342
23/05/2020 9:50 21.5 58 864.0 600 0.0 3.2 11.7 346
23/05/2020 10:00 21.3 59 734.8 518 0.0 2.7 9.8 345
23/05/2020 10:10 21.0 60 840.0 496 0.0 3.5 12.7 339
23/05/2020 10:20 21.3 60 971.0 592 0.0 3.4 12.3 329
23/05/2020 10:30 21.3 60 945.0 548 0.0 3.4 12.3 339
23/05/2020 10:40 20.5 61 964.0 588 0.0 4.3 15.4 339
23/05/2020 10:50 20.4 61 989.0 600 0.0 4.6 16.6 345
23/05/2020 11:00 20.3 62 991.0 600 0.0 3.4 12.2 335
23/05/2020 11:10 20.6 60 996.0 600 0.0 3.9 14.1 341
23/05/2020 11:20 20.3 60 887.0 600 0.0 4.1 14.7 341
23/05/2020 11:30 19.5 60 869.0 600 0.0 4.1 14.6 359
23/05/2020 11:40 19.5 60 921.0 600 0.0 4.3 15.4 342
23/05/2020 11:50 19.4 60 1013.0 600 0.0 4.2 15.0 343
23/05/2020 12:00 19.4 59 1015.0 600 0.0 4.5 16.2 341
23/05/2020 12:10 19.1 59 1016.0 600 0.0 4.6 16.5 336
23/05/2020 12:20 19.5 59 1090.0 600 0.0 3.4 12.4 340
23/05/2020 12:30 19.7 57 836.0 600 0.0 4.3 15.6 347
23/05/2020 12:40 18.9 59 573.7 600 0.0 3.8 13.7 351
23/05/2020 12:50 18.5 60 580.1 600 0.0 4.7 16.7 6
23/05/2020 13:00 18.1 60 731.3 600 0.0 5.6 20.1 27
23/05/2020 13:10 18.7 59 815.0 600 0.0 5.6 20.2 5
23/05/2020 13:20 18.5 58 815.0 600 0.0 5.1 18.2 18
23/05/2020 13:30 18.1 59 865.0 600 0.0 7.0 25.1 8
23/05/2020 13:40 17.8 59 738.2 600 0.0 6.1 22.1 8
23/05/2020 13:50 18.4 59 734.9 600 0.0 7.2 25.8 1
23/05/2020 14:00 17.8 60 600.3 480 0.0 7.3 26.1 3
23/05/2020 14:10 17.7 61 579.2 428 0.0 5.8 21.0 10
23/05/2020 14:20 17.6 62 480.6 522 0.0 5.2 18.8 1
23/05/2020 14:30 17.6 61 866.0 600 0.0 5.8 20.8 7
23/05/2020 14:40 17.1 62 835.0 600 0.0 6.3 22.5 25
23/05/2020 14:50 17.1 62 806.0 600 0.0 5.3 19.0 19
23/05/2020 15:00 17.0 63 776.1 600 0.0 5.9 21.2 22
23/05/2020 15:10 16.6 63 753.9 600 0.0 7.8 28.2 20
23/05/2020 15:20 16.5 63 728.7 600 0.0 7.9 28.4 25
23/05/2020 15:30 16.6 63 702.0 600 0.0 6.3 22.7 14
23/05/2020 15:40 16.7 63 673.5 600 0.0 6.5 23.4 11
23/05/2020 15:50 16.5 62 644.7 600 0.0 6.5 23.3 16
23/05/2020 16:00 16.2 63 615.9 600 0.0 6.9 24.9 11
23/05/2020 16:10 16.0 64 585.3 600 0.0 5.7 20.7 13
23/05/2020 16:20 15.8 64 555.2 600 0.0 7.3 26.4 10
23/05/2020 16:30 15.4 66 524.5 600 0.0 6.5 23.4 10
23/05/2020 16:40 15.6 65 491.6 600 0.0 5.9 21.3 7
23/05/2020 16:50 15.2 66 460.2 600 0.0 6.7 24.2 14
23/05/2020 17:00 15.3 65 428.1 600 0.0 6.8 24.4 9
23/05/2020 17:10 15.6 65 396.0 600 0.0 6.4 23.1 7
23/05/2020 17:20 15.7 65 363.3 600 0.0 6.0 21.5 1
23/05/2020 17:30 15.6 65 330.3 600 0.0 5.5 19.9 2
23/05/2020 17:40 15.7 65 298.2 600 0.0 5.7 20.4 353
23/05/2020 17:50 15.5 66 265.4 600 0.0 5.9 21.3 346
23/05/2020 18:00 15.4 66 233.2 600 0.0 5.1 18.4 346
23/05/2020 18:10 15.2 67 201.9 600 0.0 6.1 21.9 348
23/05/2020 18:20 15.2 68 173.6 600 0.0 4.5 16.3 343
23/05/2020 18:30 14.9 69 144.1 600 0.0 5.8 20.9 343
23/05/2020 18:40 14.6 71 115.5 600 0.0 6.5 23.4 353
23/05/2020 18:50 14.4 72 84.0 562 0.0 6.0 21.6 352
23/05/2020 19:00 14.0 74 26.5 0 0.0 6.6 23.9 356
23/05/2020 19:10 13.9 75 19.9 0 0.0 6.5 23.5 353
23/05/2020 19:20 13.8 76 4.5 0 0.0 5.5 19.7 354
23/05/2020 19:30 13.8 76 0.0 0 0.0 5.8 21.0 348
23/05/2020 19:40 13.8 76 0.0 0 0.0 5.3 19.1 342
23/05/2020 19:50 13.8 76 0.0 0 0.0 4.8 17.1 337
23/05/2020 20:00 13.8 76 0.0 0 0.0 3.8 13.5 338
23/05/2020 20:10 13.7 76 0.0 0 0.0 3.3 11.8 317
23/05/2020 20:20 13.6 76 0.0 0 0.0 2.6 9.3 324
23/05/2020 20:30 13.6 76 0.0 0 0.0 1.9 6.9 318
23/05/2020 20:40 13.6 76 0.0 0 0.0 3.1 11.2 310
23/05/2020 20:50 13.6 76 0.0 0 0.0 2.2 8.1 323
23/05/2020 21:00 13.6 76 0.0 0 0.0 3.8 13.8 316
23/05/2020 21:10 13.6 76 0.0 0 0.0 2.6 9.3 348
23/05/2020 21:20 13.8 76 0.0 0 0.0 3.7 13.2 333
23/05/2020 21:30 13.6 76 0.0 0 0.0 2.7 9.8 326
23/05/2020 21:40 13.6 76 0.0 0 0.0 3.1 11.2 332
23/05/2020 21:50 13.6 76 0.0 0 0.0 3.0 10.7 297
23/05/2020 22:00 13.6 76 0.0 0 0.0 3.0 10.7 340
23/05/2020 22:10 13.5 76 0.0 0 0.0 2.1 7.4 340
23/05/2020 22:20 13.5 77 0.0 0 0.0 2.7 9.7 351
23/05/2020 22:30 13.5 77 0.0 0 0.0 2.4 8.7 346
23/05/2020 22:40 13.3 77 0.0 0 0.0 3.0 10.7 335
23/05/2020 22:50 13.4 77 0.0 0 0.0 2.6 9.5 344
23/05/2020 23:00 13.4 77 0.0 0 0.0 2.4 8.5 336
23/05/2020 23:10 13.3 77 0.0 0 0.0 3.4 12.1 348
23/05/2020 23:20 13.4 76 0.0 0 0.0 2.8 9.9 340
23/05/2020 23:30 13.5 76 0.0 0 0.0 3.9 13.9 352
23/05/2020 23:40 13.4 77 0.0 0 0.0 2.9 10.5 360
23/05/2020 23:50 13.4 77 0.0 0 0.0 3.4 12.3 353
Anterior Página 1 de 1 Siguiente

NOTA: Tipo de datos según el color:
   - Valores diarios o 10 minutos correctos
   - Valores diarios calculados a partir de un número de datos 10 minutos menor que 144 y mayor que 120, o de un número de datos semihorarios menor que 48 y mayor que 40 (caso de las estaciones de INTIA y del Ministerio)
   - Valores diez minutos estimados


Contacto        Enlaces        Aviso legal